createdAt,value
2019-03-21T00:00:22.129Z,0.53
2019-03-21T00:02:49.389Z,0.53
2019-03-21T00:05:16.696Z,0.55
2019-03-21T00:07:44.219Z,0.51
2019-03-21T00:10:44.324Z,0.50
2019-03-21T00:13:11.981Z,0.46
2019-03-21T00:15:41.139Z,0.43
2019-03-21T00:18:10.275Z,0.41
2019-03-21T00:20:37.769Z,0.38
2019-03-21T00:23:05.059Z,0.36
2019-03-21T00:25:32.466Z,0.33
2019-03-21T00:27:59.809Z,0.31
2019-03-21T00:30:29.292Z,0.28
2019-03-21T00:32:56.842Z,0.25
2019-03-21T00:35:24.171Z,0.20
2019-03-21T00:37:51.492Z,0.17
2019-03-21T00:40:22.170Z,0.12
2019-03-21T00:42:50.180Z,0.09
2019-03-21T00:45:17.700Z,0.09
2019-03-21T00:47:45.176Z,0.09
2019-03-21T00:50:14.269Z,0.06
2019-03-21T00:52:41.491Z,0.04
2019-03-21T00:55:09.994Z,-0.02
2019-03-21T00:57:37.252Z,-0.04
2019-03-21T01:00:05.693Z,-0.08
2019-03-21T01:02:32.894Z,-0.10
2019-03-21T01:05:00.074Z,-0.12
2019-03-21T01:07:27.308Z,-0.13
2019-03-21T01:09:54.638Z,-0.16
2019-03-21T01:12:21.865Z,-0.19
2019-03-21T01:14:49.301Z,-0.20
2019-03-21T01:17:16.693Z,-0.22
2019-03-21T01:19:43.940Z,-0.24
2019-03-21T01:22:11.402Z,-0.26
2019-03-21T01:24:38.705Z,-0.26
2019-03-21T01:27:05.924Z,-0.25
2019-03-21T01:29:33.374Z,-0.28
2019-03-21T01:32:00.672Z,-0.28
2019-03-21T01:34:30.267Z,-0.29
2019-03-21T01:36:57.463Z,-0.30
2019-03-21T01:39:24.689Z,-0.32
2019-03-21T01:41:52.078Z,-0.35
2019-03-21T01:44:19.305Z,-0.37
2019-03-21T01:46:46.804Z,-0.39
2019-03-21T01:49:14.211Z,-0.40
2019-03-21T01:51:41.433Z,-0.42
2019-03-21T01:54:08.618Z,-0.43
2019-03-21T01:56:35.949Z,-0.45
2019-03-21T01:59:03.611Z,-0.48
2019-03-21T02:01:30.745Z,-0.52
2019-03-21T02:03:58.108Z,-0.55
2019-03-21T02:06:25.480Z,-0.54
2019-03-21T02:08:52.844Z,-0.55
2019-03-21T02:11:20.081Z,-0.56
2019-03-21T02:13:47.385Z,-0.57
2019-03-21T02:16:14.757Z,-0.58
2019-03-21T02:18:42.391Z,-0.59
2019-03-21T02:21:09.703Z,-0.62
2019-03-21T02:23:36.972Z,-0.65
2019-03-21T02:26:04.408Z,-0.64
2019-03-21T02:28:31.772Z,-0.65
2019-03-21T02:30:59.003Z,-0.65
2019-03-21T02:33:28.628Z,-0.65
2019-03-21T02:35:55.857Z,-0.66
2019-03-21T02:38:23.181Z,-0.68
2019-03-21T02:40:50.729Z,-0.70
2019-03-21T02:43:18.056Z,-0.72
2019-03-21T02:45:45.451Z,-0.74
2019-03-21T02:48:12.781Z,-0.76
2019-03-21T02:50:39.971Z,-0.76
2019-03-21T02:53:07.347Z,-0.78
2019-03-21T02:55:34.726Z,-0.77
2019-03-21T02:58:01.909Z,-0.78
2019-03-21T03:00:30.321Z,-0.77
2019-03-21T03:02:58.526Z,-0.80
2019-03-21T03:05:26.878Z,-0.82
2019-03-21T03:07:54.073Z,-0.83
2019-03-21T03:10:24.486Z,-0.85
2019-03-21T03:12:51.788Z,-0.86
2019-03-21T03:15:22.932Z,-0.88
2019-03-21T03:17:49.175Z,-0.89
2019-03-21T03:20:16.518Z,-0.91
2019-03-21T03:22:43.800Z,-0.94
2019-03-21T03:25:11.787Z,-0.96
2019-03-21T03:27:39.040Z,-0.96
2019-03-21T03:30:09.437Z,-0.98
2019-03-21T03:32:36.831Z,-1.00
2019-03-21T03:35:05.355Z,-1.02
2019-03-21T03:37:32.656Z,-1.05
2019-03-21T03:39:59.936Z,-1.04
2019-03-21T03:42:27.166Z,-1.06
2019-03-21T03:44:54.491Z,-1.07
2019-03-21T03:47:21.652Z,-1.11
2019-03-21T03:49:48.970Z,-1.12
2019-03-21T03:52:16.162Z,-1.12
2019-03-21T03:54:43.380Z,-1.13
2019-03-21T03:57:10.753Z,-1.12
2019-03-21T03:59:38.371Z,-1.15
2019-03-21T04:02:05.545Z,-1.15
2019-03-21T04:04:32.737Z,-1.19
2019-03-21T04:06:59.982Z,-1.19
2019-03-21T04:09:27.234Z,-1.19
2019-03-21T04:11:54.571Z,-1.21
2019-03-21T04:14:21.716Z,-1.24
2019-03-21T04:16:49.006Z,-1.24
2019-03-21T04:19:16.299Z,-1.25
2019-03-21T04:21:43.682Z,-1.26
2019-03-21T04:24:10.897Z,-1.28
2019-03-21T04:26:38.180Z,-1.25
2019-03-21T04:29:05.358Z,-1.26
2019-03-21T04:31:32.910Z,-1.28
2019-03-21T04:34:01.806Z,-1.29
2019-03-21T04:36:29.812Z,-1.28
2019-03-21T04:38:58.064Z,-1.28
2019-03-21T04:41:25.430Z,-1.29
2019-03-21T04:43:52.655Z,-1.30
2019-03-21T04:46:20.038Z,-1.32
2019-03-21T04:48:47.430Z,-1.33
2019-03-21T04:51:14.833Z,-1.35
2019-03-21T04:53:42.124Z,-1.35
2019-03-21T04:56:09.458Z,-1.37
2019-03-21T04:58:36.546Z,-1.39
2019-03-21T05:01:04.081Z,-1.40
2019-03-21T05:03:31.320Z,-1.39
2019-03-21T05:05:58.514Z,-1.40
2019-03-21T05:08:26.014Z,-1.39
2019-03-21T05:10:53.663Z,-1.37
2019-03-21T05:13:20.885Z,-1.38
2019-03-21T05:15:48.324Z,-1.39
2019-03-21T05:18:28.612Z,-1.39
2019-03-21T05:20:56.310Z,-1.37
2019-03-21T05:23:23.529Z,-1.38
2019-03-21T05:25:50.812Z,-1.35
2019-03-21T05:28:18.150Z,-1.33
2019-03-21T05:30:49.267Z,-1.29
2019-03-21T05:33:16.828Z,-1.26
2019-03-21T05:35:44.269Z,-1.23
2019-03-21T05:38:11.931Z,-1.18
2019-03-21T05:40:39.216Z,-1.15
2019-03-21T05:43:09.881Z,-1.11
2019-03-21T05:45:37.256Z,-1.09
2019-03-21T05:48:04.832Z,-1.06
2019-03-21T05:50:32.055Z,-1.01
2019-03-21T05:52:59.275Z,-0.94
2019-03-21T05:55:26.910Z,-0.88
2019-03-21T05:57:54.476Z,-0.80
2019-03-21T06:00:28.223Z,-0.72
2019-03-21T06:02:55.539Z,-0.62
2019-03-21T06:05:22.905Z,-0.51
2019-03-21T06:08:11.451Z,-0.42
2019-03-21T06:10:38.915Z,-0.32
2019-03-21T06:13:06.157Z,-0.23
2019-03-21T06:15:34.477Z,-0.15
2019-03-21T06:18:49.722Z,-0.04
2019-03-21T06:21:24.556Z,0.10
2019-03-21T06:24:29.618Z,0.29
2019-03-21T06:27:33.489Z,0.42
2019-03-21T06:30:00.968Z,0.58
2019-03-21T06:32:28.730Z,0.77
2019-03-21T06:34:56.394Z,0.92
2019-03-21T06:37:24.075Z,1.06
2019-03-21T06:39:51.288Z,1.21
2019-03-21T06:42:18.763Z,1.35
2019-03-21T06:44:46.160Z,1.49
2019-03-21T06:47:13.431Z,1.64
2019-03-21T06:49:40.779Z,1.81
2019-03-21T06:52:08.402Z,1.97
2019-03-21T06:54:35.770Z,2.10
2019-03-21T06:57:03.183Z,2.23
2019-03-21T06:59:31.136Z,2.35
2019-03-21T07:01:58.319Z,2.50
2019-03-21T07:04:25.448Z,2.61
2019-03-21T07:06:53.118Z,2.73
2019-03-21T07:09:29.463Z,2.85
2019-03-21T07:11:56.844Z,2.98
2019-03-21T07:14:24.105Z,3.08
2019-03-21T07:17:00.101Z,3.25
2019-03-21T07:19:20.397Z,3.43
2019-03-21T07:21:47.688Z,3.56
2019-03-21T07:24:14.941Z,3.71
2019-03-21T07:26:42.035Z,3.82
2019-03-21T07:29:09.323Z,4.02
2019-03-21T07:31:36.684Z,4.12
2019-03-21T07:34:04.300Z,4.23
2019-03-21T07:36:31.645Z,4.49
2019-03-21T07:38:58.934Z,4.59
2019-03-21T07:41:26.176Z,4.74
2019-03-21T07:43:53.531Z,4.91
2019-03-21T07:46:20.988Z,4.91
2019-03-21T07:48:48.146Z,5.08
2019-03-21T07:51:15.511Z,5.26
2019-03-21T07:53:42.833Z,5.41
2019-03-21T07:56:10.121Z,5.64
2019-03-21T07:58:37.488Z,5.80
2019-03-21T08:01:04.828Z,5.87
2019-03-21T08:03:32.011Z,6.17
2019-03-21T08:05:59.188Z,6.39
2019-03-21T08:08:26.523Z,6.70
2019-03-21T08:10:53.706Z,7.30
2019-03-21T08:13:21.027Z,8.89
2019-03-21T08:15:48.334Z,11.21
2019-03-21T08:18:16.784Z,12.93
2019-03-21T08:20:55.649Z,15.65
2019-03-21T08:23:13.117Z,17.25
2019-03-21T08:25:40.531Z,17.78
2019-03-21T08:28:08.013Z,19.68
2019-03-21T08:30:36.375Z,19.53
2019-03-21T08:33:04.489Z,21.62
2019-03-21T08:35:31.786Z,21.96
2019-03-21T08:37:58.971Z,22.28
2019-03-21T08:40:26.283Z,23.54
2019-03-21T08:42:53.528Z,24.34
2019-03-21T08:45:20.897Z,25.12
2019-03-21T08:47:48.132Z,24.49
2019-03-21T08:50:15.407Z,24.65
2019-03-21T08:52:42.762Z,23.91
2019-03-21T08:55:09.965Z,23.56
2019-03-21T08:57:37.160Z,23.95
2019-03-21T09:00:05.140Z,24.97
2019-03-21T09:02:32.503Z,25.71
2019-03-21T09:04:59.972Z,24.73
2019-03-21T09:07:27.134Z,23.34
2019-03-21T09:09:54.349Z,22.19
2019-03-21T09:12:21.712Z,20.50
2019-03-21T09:14:48.895Z,20.08
2019-03-21T09:17:16.082Z,19.11
2019-03-21T09:19:43.291Z,18.47
2019-03-21T09:22:11.669Z,18.40
2019-03-21T09:24:38.865Z,17.93
2019-03-21T09:27:06.070Z,17.62
2019-03-21T09:29:33.405Z,18.55
2019-03-21T09:32:00.700Z,18.39
2019-03-21T09:34:27.910Z,18.89
2019-03-21T09:36:56.165Z,20.10
2019-03-21T09:39:23.521Z,19.71
2019-03-21T09:41:50.808Z,19.90
2019-03-21T09:44:25.502Z,20.23
2019-03-21T09:46:52.685Z,20.77
2019-03-21T09:49:19.889Z,21.75
2019-03-21T09:51:47.083Z,21.75
2019-03-21T09:54:14.304Z,22.84
2019-03-21T09:56:41.547Z,21.42
2019-03-21T09:59:08.849Z,21.92
2019-03-21T10:01:36.148Z,22.90
2019-03-21T10:04:03.566Z,22.55
2019-03-21T10:06:30.832Z,23.14
2019-03-21T10:08:58.249Z,23.27
2019-03-21T10:11:25.353Z,24.77
2019-03-21T10:13:52.538Z,24.58
2019-03-21T10:16:21.030Z,25.86
2019-03-21T10:18:48.219Z,24.26
2019-03-21T10:21:15.365Z,23.59
2019-03-21T10:23:42.745Z,23.19
2019-03-21T10:26:09.882Z,24.43
2019-03-21T10:28:37.191Z,25.49
2019-03-21T10:31:04.486Z,26.27
2019-03-21T10:33:31.581Z,25.08
2019-03-21T10:35:58.985Z,24.38
2019-03-21T10:38:26.223Z,23.89
2019-03-21T10:40:53.505Z,22.48
2019-03-21T10:43:20.674Z,21.67
2019-03-21T10:45:48.028Z,21.40
2019-03-21T10:48:15.221Z,22.74
2019-03-21T10:50:42.504Z,22.96
2019-03-21T10:53:09.865Z,23.57
2019-03-21T10:55:37.620Z,24.45
2019-03-21T10:58:05.635Z,25.00
2019-03-21T11:00:32.945Z,25.37
2019-03-21T11:03:00.368Z,25.99
2019-03-21T11:05:27.652Z,24.90
2019-03-21T11:07:54.928Z,24.80
2019-03-21T11:10:22.110Z,24.76
2019-03-21T11:12:49.432Z,24.79
2019-03-21T11:15:16.757Z,24.40
2019-03-21T11:17:43.942Z,23.93
2019-03-21T11:20:19.349Z,23.95
2019-03-21T11:22:46.414Z,25.03
2019-03-21T11:25:13.606Z,24.92
2019-03-21T11:27:40.767Z,24.29
2019-03-21T11:30:15.922Z,24.31
2019-03-21T11:32:37.561Z,24.72
2019-03-21T11:35:04.875Z,26.24
2019-03-21T11:37:32.269Z,26.09
2019-03-21T11:39:59.686Z,26.49
2019-03-21T11:42:26.885Z,25.19
2019-03-21T11:44:54.012Z,24.11
2019-03-21T11:47:21.332Z,25.35
2019-03-21T11:49:48.558Z,24.94
2019-03-21T11:52:18.416Z,25.02
2019-03-21T11:54:45.078Z,24.10
2019-03-21T11:57:12.297Z,23.79
2019-03-21T11:59:51.146Z,24.84
2019-03-21T12:02:08.625Z,24.95
2019-03-21T12:04:35.914Z,24.44
2019-03-21T12:07:03.212Z,23.90
2019-03-21T12:09:30.448Z,24.28
2019-03-21T12:11:57.727Z,23.22
2019-03-21T12:14:24.925Z,23.08
2019-03-21T12:16:52.099Z,22.82
2019-03-21T12:19:19.535Z,23.18
2019-03-21T12:21:46.789Z,23.18
2019-03-21T12:24:16.896Z,23.21
2019-03-21T12:26:44.069Z,23.66
2019-03-21T12:29:11.403Z,23.57
2019-03-21T12:31:38.831Z,23.13
2019-03-21T12:34:05.983Z,23.27
2019-03-21T12:36:33.308Z,23.20
2019-03-21T12:39:00.682Z,22.63
2019-03-21T12:41:27.887Z,23.35
2019-03-21T12:43:55.141Z,23.60
2019-03-21T12:46:22.636Z,24.04
2019-03-21T12:48:49.754Z,24.28
2019-03-21T12:51:16.992Z,23.72
2019-03-21T12:53:44.350Z,24.96
2019-03-21T12:56:11.591Z,25.24
2019-03-21T12:58:38.889Z,26.16
2019-03-21T13:01:06.377Z,24.56
2019-03-21T13:03:33.476Z,24.47
2019-03-21T13:06:00.824Z,24.34
2019-03-21T13:08:33.801Z,23.52
2019-03-21T13:10:57.077Z,22.96
2019-03-21T13:13:24.222Z,22.51
2019-03-21T13:15:51.321Z,21.59
2019-03-21T13:18:18.609Z,20.58
2019-03-21T13:20:45.885Z,20.21
2019-03-21T13:23:13.098Z,19.39
2019-03-21T13:25:40.529Z,19.27
2019-03-21T13:28:07.740Z,18.95
2019-03-21T13:30:35.403Z,18.78
2019-03-21T13:33:03.171Z,19.01
2019-03-21T13:35:32.923Z,19.08
2019-03-21T13:37:59.329Z,19.25
2019-03-21T13:40:26.780Z,19.80
2019-03-21T13:42:57.121Z,19.68
2019-03-21T13:45:24.408Z,19.11
2019-03-21T13:47:51.764Z,19.16
2019-03-21T13:50:19.235Z,18.89
2019-03-21T13:52:46.303Z,18.67
2019-03-21T13:55:13.631Z,18.98
2019-03-21T13:57:40.842Z,19.02
2019-03-21T14:00:09.842Z,18.94
2019-03-21T14:02:37.086Z,19.11
2019-03-21T14:05:05.180Z,18.82
2019-03-21T14:07:32.349Z,18.52
2019-03-21T14:09:59.654Z,18.53
2019-03-21T14:12:26.886Z,18.71
2019-03-21T14:14:53.981Z,18.72
2019-03-21T14:17:22.112Z,18.90
2019-03-21T14:19:49.907Z,19.35
2019-03-21T14:22:17.164Z,19.16
2019-03-21T14:24:44.464Z,19.12
2019-03-21T14:27:11.803Z,19.50
2019-03-21T14:29:39.004Z,19.45
2019-03-21T14:32:06.170Z,19.55
2019-03-21T14:34:33.408Z,19.72
2019-03-21T14:37:00.792Z,20.00
2019-03-21T14:39:28.038Z,19.81
2019-03-21T14:41:55.210Z,19.58
2019-03-21T14:44:22.722Z,19.61
2019-03-21T14:46:54.373Z,19.98
2019-03-21T14:49:21.817Z,19.57
2019-03-21T14:51:49.070Z,19.40
2019-03-21T14:54:16.215Z,19.47
2019-03-21T14:56:43.683Z,19.77
2019-03-21T14:59:11.132Z,19.75
2019-03-21T15:01:40.666Z,20.14
2019-03-21T15:04:07.606Z,21.12
2019-03-21T15:06:35.106Z,22.51
2019-03-21T15:09:06.980Z,24.08
2019-03-21T15:11:37.140Z,26.15
2019-03-21T15:14:04.443Z,27.67
2019-03-21T15:16:31.703Z,28.10
2019-03-21T15:19:00.599Z,28.69
2019-03-21T15:21:28.050Z,28.38
2019-03-21T15:23:59.631Z,27.61
2019-03-21T15:26:24.651Z,27.82
2019-03-21T15:28:51.843Z,27.25
2019-03-21T15:31:19.654Z,26.65
2019-03-21T15:33:46.891Z,25.43
2019-03-21T15:36:14.106Z,24.00
2019-03-21T15:38:41.378Z,23.52
2019-03-21T15:41:08.596Z,22.26
2019-03-21T15:43:35.695Z,21.29
2019-03-21T15:46:03.154Z,20.49
2019-03-21T15:48:30.344Z,20.44
2019-03-21T15:51:04.306Z,20.24
2019-03-21T15:53:26.571Z,19.92
2019-03-21T15:55:53.887Z,19.42
2019-03-21T15:58:21.081Z,19.23
2019-03-21T16:00:48.290Z,18.77
2019-03-21T16:03:15.706Z,18.49
2019-03-21T16:05:43.011Z,18.33
2019-03-21T16:08:10.297Z,18.05
2019-03-21T16:10:37.622Z,17.61
2019-03-21T16:13:04.815Z,17.50
2019-03-21T16:15:32.155Z,17.30
2019-03-21T16:17:59.433Z,17.12
2019-03-21T16:20:26.791Z,16.84
2019-03-21T16:22:54.109Z,16.65
2019-03-21T16:25:21.441Z,16.42
2019-03-21T16:27:48.723Z,16.17
2019-03-21T16:30:16.008Z,16.06
2019-03-21T16:32:43.197Z,15.92
2019-03-21T16:35:10.614Z,15.72
2019-03-21T16:37:37.780Z,15.58
2019-03-21T16:40:05.749Z,15.41
2019-03-21T16:42:32.974Z,15.27
2019-03-21T16:45:00.410Z,15.18
2019-03-21T16:47:27.722Z,15.10
2019-03-21T16:49:55.015Z,14.97
2019-03-21T16:52:22.141Z,14.86
2019-03-21T16:54:51.110Z,14.76
2019-03-21T16:57:18.366Z,14.62
2019-03-21T16:59:45.544Z,14.51
2019-03-21T17:02:12.716Z,14.44
2019-03-21T17:04:40.173Z,14.37
2019-03-21T17:07:07.215Z,14.26
2019-03-21T17:09:34.487Z,14.14
2019-03-21T17:12:01.952Z,14.03
2019-03-21T17:14:29.123Z,13.88
2019-03-21T17:16:56.287Z,13.75
2019-03-21T17:19:23.664Z,13.58
2019-03-21T17:21:50.849Z,13.42
2019-03-21T17:24:28.789Z,13.23
2019-03-21T17:26:47.128Z,13.06
2019-03-21T17:29:14.337Z,12.91
2019-03-21T17:31:41.577Z,12.76
2019-03-21T17:34:08.896Z,12.63
2019-03-21T17:36:36.599Z,12.53
2019-03-21T17:39:06.589Z,12.42
2019-03-21T17:41:34.361Z,12.28
2019-03-21T17:44:01.852Z,12.18
2019-03-21T17:46:29.028Z,12.09
2019-03-21T17:48:56.337Z,12.00
2019-03-21T17:51:23.614Z,11.92
2019-03-21T17:53:50.867Z,11.84
2019-03-21T17:56:18.067Z,11.75
2019-03-21T17:58:45.232Z,11.68
2019-03-21T18:01:12.595Z,11.61
2019-03-21T18:03:39.895Z,11.51
2019-03-21T18:06:07.201Z,11.41
2019-03-21T18:08:35.124Z,11.32
2019-03-21T18:11:02.263Z,11.23
2019-03-21T18:13:29.583Z,11.12
2019-03-21T18:15:56.976Z,11.03
2019-03-21T18:18:24.324Z,10.94
2019-03-21T18:20:51.712Z,10.80
2019-03-21T18:23:18.935Z,10.68
2019-03-21T18:25:46.227Z,10.63
2019-03-21T18:28:13.609Z,10.56
2019-03-21T18:30:40.793Z,10.49
2019-03-21T18:33:08.125Z,10.40
2019-03-21T18:35:35.427Z,10.31
2019-03-21T18:38:03.208Z,10.24
2019-03-21T18:40:30.528Z,10.17
2019-03-21T18:42:58.257Z,10.09
2019-03-21T18:45:25.498Z,10.03
2019-03-21T18:47:52.801Z,9.93
2019-03-21T18:50:20.200Z,9.87
2019-03-21T18:52:47.823Z,9.82
2019-03-21T18:55:15.195Z,9.75
2019-03-21T18:57:42.497Z,9.71
2019-03-21T19:00:10.794Z,9.67
2019-03-21T19:02:38.024Z,9.62
2019-03-21T19:05:06.243Z,9.55
2019-03-21T19:07:33.788Z,9.48
2019-03-21T19:10:01.693Z,9.38
2019-03-21T19:12:29.066Z,9.31
2019-03-21T19:14:56.329Z,9.23
2019-03-21T19:17:23.673Z,9.15
2019-03-21T19:19:50.926Z,9.09
2019-03-21T19:22:18.212Z,9.02
2019-03-21T19:24:45.629Z,8.96
2019-03-21T19:27:12.884Z,8.92
2019-03-21T19:29:40.270Z,8.84
2019-03-21T19:32:07.612Z,8.78
2019-03-21T19:34:34.816Z,8.71
2019-03-21T19:37:02.108Z,8.65
2019-03-21T19:39:29.421Z,8.58
2019-03-21T19:41:56.608Z,8.52
2019-03-21T19:44:23.719Z,8.44
2019-03-21T19:46:50.995Z,8.38
2019-03-21T19:49:18.202Z,8.31
2019-03-21T19:51:45.415Z,8.24
2019-03-21T19:54:12.654Z,8.14
2019-03-21T19:56:39.739Z,8.07
2019-03-21T19:59:06.898Z,8.01
2019-03-21T20:01:34.095Z,7.95
2019-03-21T20:04:01.275Z,7.90
2019-03-21T20:06:28.531Z,7.83
2019-03-21T20:08:56.826Z,7.76
2019-03-21T20:11:24.596Z,7.70
2019-03-21T20:13:51.756Z,7.66
2019-03-21T20:16:18.940Z,7.60
2019-03-21T20:18:47.919Z,7.53
2019-03-21T20:21:15.186Z,7.44
2019-03-21T20:23:42.343Z,7.36
2019-03-21T20:26:09.694Z,7.30
2019-03-21T20:28:36.937Z,7.23
2019-03-21T20:31:04.232Z,7.14
2019-03-21T20:33:31.441Z,7.08
2019-03-21T20:35:58.772Z,7.01
2019-03-21T20:38:26.128Z,6.93
2019-03-21T20:40:53.422Z,6.84
2019-03-21T20:43:20.680Z,6.76
2019-03-21T20:45:47.890Z,6.69
2019-03-21T20:48:15.321Z,6.64
2019-03-21T20:50:42.772Z,6.59
2019-03-21T20:53:09.985Z,6.53
2019-03-21T20:55:37.496Z,6.45
2019-03-21T20:58:04.710Z,6.39
2019-03-21T21:00:32.062Z,6.33
2019-03-21T21:02:59.355Z,6.27
2019-03-21T21:05:26.742Z,6.23
2019-03-21T21:07:54.174Z,6.17
2019-03-21T21:10:21.495Z,6.13
2019-03-21T21:12:49.690Z,6.09
2019-03-21T21:15:17.654Z,6.04
2019-03-21T21:17:45.007Z,5.99
2019-03-21T21:20:12.986Z,5.95
2019-03-21T21:22:40.453Z,5.91
2019-03-21T21:25:08.221Z,5.84
2019-03-21T21:27:35.825Z,5.79
2019-03-21T21:30:04.642Z,5.73
2019-03-21T21:32:31.894Z,5.69
2019-03-21T21:34:59.240Z,5.64
2019-03-21T21:37:26.414Z,5.59
2019-03-21T21:39:53.673Z,5.54
2019-03-21T21:42:20.835Z,5.52
2019-03-21T21:44:48.442Z,5.48
2019-03-21T21:47:15.619Z,5.41
2019-03-21T21:49:42.792Z,5.38
2019-03-21T21:52:10.170Z,5.35
2019-03-21T21:54:37.398Z,5.30
2019-03-21T21:57:05.162Z,5.24
2019-03-21T21:59:33.793Z,5.18
2019-03-21T22:02:01.635Z,5.13
2019-03-21T22:04:29.004Z,5.10
2019-03-21T22:06:56.538Z,5.07
2019-03-21T22:09:23.883Z,5.02
2019-03-21T22:11:51.808Z,4.95
2019-03-21T22:14:21.060Z,4.93
2019-03-21T22:16:48.601Z,4.89
2019-03-21T22:19:15.822Z,4.86
2019-03-21T22:21:43.082Z,4.83
2019-03-21T22:24:10.358Z,4.81
2019-03-21T22:26:37.570Z,4.77
2019-03-21T22:29:04.997Z,4.74
2019-03-21T22:31:32.227Z,4.68
2019-03-21T22:33:59.423Z,4.65
2019-03-21T22:36:26.742Z,4.59
2019-03-21T22:38:54.989Z,4.55
2019-03-21T22:41:22.206Z,4.51
2019-03-21T22:43:49.380Z,4.49
2019-03-21T22:46:16.568Z,4.45
2019-03-21T22:48:43.867Z,4.42
2019-03-21T22:51:11.057Z,4.40
2019-03-21T22:53:38.112Z,4.37
2019-03-21T22:56:05.292Z,4.33
2019-03-21T22:58:32.767Z,4.29
2019-03-21T23:01:00.541Z,4.23
2019-03-21T23:03:27.574Z,4.18
2019-03-21T23:05:54.752Z,4.15
2019-03-21T23:08:22.023Z,4.12
2019-03-21T23:10:49.091Z,4.11
2019-03-21T23:13:16.311Z,4.07
2019-03-21T23:15:43.513Z,4.06
2019-03-21T23:18:10.690Z,4.02
2019-03-21T23:20:37.969Z,3.98
2019-03-21T23:23:05.187Z,3.94
2019-03-21T23:25:32.252Z,3.90
2019-03-21T23:27:59.369Z,3.87
2019-03-21T23:30:26.601Z,3.85
2019-03-21T23:32:53.889Z,3.82
2019-03-21T23:35:21.117Z,3.78
2019-03-21T23:37:48.296Z,3.75
2019-03-21T23:40:15.721Z,3.71
2019-03-21T23:42:42.910Z,3.72
2019-03-21T23:45:10.432Z,3.70
2019-03-21T23:47:37.618Z,3.66
2019-03-21T23:50:06.336Z,3.63
2019-03-21T23:52:33.404Z,3.60
2019-03-21T23:55:00.597Z,3.58
2019-03-21T23:57:27.756Z,3.54
2019-03-21T23:59:55.053Z,3.53
